createdAt,value
2017-10-31T00:01:19.648Z,6.67
2017-10-31T00:03:47.097Z,6.40
2017-10-31T00:06:14.569Z,6.37
2017-10-31T00:08:42.017Z,5.53
2017-10-31T00:11:09.481Z,7.37
2017-10-31T00:13:37.456Z,7.00
2017-10-31T00:16:04.909Z,6.33
2017-10-31T00:18:32.356Z,7.50
2017-10-31T00:20:59.926Z,6.30
2017-10-31T00:23:27.425Z,5.97
2017-10-31T00:25:55.728Z,8.00
2017-10-31T00:28:23.172Z,7.03
2017-10-31T00:30:50.673Z,6.57
2017-10-31T00:33:18.110Z,7.03
2017-10-31T00:35:45.562Z,6.90
2017-10-31T00:38:13.003Z,7.17
2017-10-31T00:40:40.481Z,6.40
2017-10-31T00:43:07.930Z,6.80
2017-10-31T00:45:36.140Z,7.07
2017-10-31T00:48:03.682Z,6.67
2017-10-31T00:50:32.144Z,6.40
2017-10-31T00:52:59.596Z,6.60
2017-10-31T00:55:27.072Z,7.07
2017-10-31T00:57:54.521Z,6.67
2017-10-31T01:00:22.089Z,6.93
2017-10-31T01:02:49.537Z,7.03
2017-10-31T01:05:17.088Z,7.40
2017-10-31T01:07:44.537Z,6.03
2017-10-31T01:10:12.012Z,6.17
2017-10-31T01:12:39.508Z,5.87
2017-10-31T01:15:07.730Z,7.00
2017-10-31T01:17:35.177Z,5.83
2017-10-31T01:20:02.640Z,6.20
2017-10-31T01:22:30.196Z,6.07
2017-10-31T01:24:57.865Z,6.10
2017-10-31T01:27:25.316Z,5.57
2017-10-31T01:29:52.797Z,6.30
2017-10-31T01:32:20.324Z,5.90
2017-10-31T01:34:47.766Z,5.33
2017-10-31T01:37:15.237Z,6.30
2017-10-31T01:39:42.702Z,7.33
2017-10-31T01:42:10.252Z,7.23
2017-10-31T01:44:37.782Z,6.87
2017-10-31T01:47:05.224Z,6.07
2017-10-31T01:49:32.657Z,7.03
2017-10-31T01:52:00.881Z,6.30
2017-10-31T01:54:28.357Z,6.10
2017-10-31T01:56:55.796Z,6.13
2017-10-31T01:59:23.232Z,6.73
2017-10-31T02:01:50.722Z,6.13
2017-10-31T02:04:18.157Z,5.93
2017-10-31T02:06:45.605Z,6.50
2017-10-31T02:09:13.125Z,6.00
2017-10-31T02:11:41.349Z,7.63
2017-10-31T02:14:08.817Z,6.60
2017-10-31T02:16:36.341Z,6.80
2017-10-31T02:19:03.762Z,6.10
2017-10-31T02:21:31.969Z,6.90
2017-10-31T02:23:59.446Z,6.50
2017-10-31T02:26:26.892Z,6.30
2017-10-31T02:28:54.361Z,6.40
2017-10-31T02:31:21.827Z,6.50
2017-10-31T02:33:49.377Z,6.67
2017-10-31T02:36:16.818Z,6.97
2017-10-31T02:38:56.217Z,7.10
2017-10-31T02:41:23.657Z,7.77
2017-10-31T02:43:51.903Z,6.17
2017-10-31T02:46:19.347Z,6.50
2017-10-31T02:48:46.807Z,6.77
2017-10-31T02:51:14.235Z,7.03
2017-10-31T02:53:41.700Z,7.53
2017-10-31T02:56:09.129Z,7.20
2017-10-31T02:58:36.634Z,7.10
2017-10-31T03:01:04.078Z,6.67
2017-10-31T03:03:31.535Z,7.30
2017-10-31T03:05:59.069Z,7.67
2017-10-31T03:08:27.145Z,7.20
2017-10-31T03:10:54.581Z,6.20
2017-10-31T03:13:22.089Z,6.87
2017-10-31T03:15:49.709Z,6.77
2017-10-31T03:18:17.230Z,7.63
2017-10-31T03:20:45.465Z,6.70
2017-10-31T03:23:12.933Z,7.60
2017-10-31T03:25:40.488Z,6.90
2017-10-31T03:28:07.944Z,7.67
2017-10-31T03:30:35.378Z,6.73
2017-10-31T03:33:02.838Z,6.80
2017-10-31T03:35:30.266Z,6.50
2017-10-31T03:37:57.779Z,6.23
2017-10-31T03:40:25.391Z,7.33
2017-10-31T03:42:52.816Z,7.77
2017-10-31T03:45:20.295Z,7.20
2017-10-31T03:47:47.732Z,6.73
2017-10-31T03:50:15.187Z,7.53
2017-10-31T03:52:43.384Z,7.17
2017-10-31T03:55:10.835Z,7.17
2017-10-31T03:57:38.274Z,6.50
2017-10-31T04:00:05.782Z,7.83
2017-10-31T04:02:33.333Z,7.63
2017-10-31T04:05:00.784Z,6.53
2017-10-31T04:07:28.218Z,7.30
2017-10-31T04:09:55.660Z,7.77
2017-10-31T04:12:23.099Z,8.00
2017-10-31T04:14:51.313Z,7.87
2017-10-31T04:17:18.811Z,7.53
2017-10-31T04:19:46.271Z,7.50
2017-10-31T04:22:13.810Z,7.40
2017-10-31T04:24:41.344Z,6.10
2017-10-31T04:27:08.824Z,6.90
2017-10-31T04:29:37.796Z,8.40
2017-10-31T04:32:05.257Z,7.67
2017-10-31T04:34:32.730Z,7.10
2017-10-31T04:37:00.178Z,7.40
2017-10-31T04:39:27.625Z,8.10
2017-10-31T04:41:55.069Z,6.90
2017-10-31T04:44:22.509Z,7.00
2017-10-31T04:46:49.986Z,6.73
2017-10-31T04:49:17.430Z,7.27
2017-10-31T04:51:44.897Z,7.53
2017-10-31T04:54:12.337Z,7.27
2017-10-31T04:56:39.790Z,7.17
2017-10-31T04:59:07.225Z,7.17
2017-10-31T05:01:34.726Z,11.63
2017-10-31T05:04:02.166Z,6.80
2017-10-31T05:06:29.607Z,5.83
2017-10-31T05:08:57.049Z,6.20
2017-10-31T05:11:24.509Z,5.80
2017-10-31T05:13:51.954Z,6.97
2017-10-31T05:16:19.429Z,6.80
2017-10-31T05:18:46.857Z,6.50
2017-10-31T05:21:15.082Z,6.00
2017-10-31T05:23:42.517Z,5.73
2017-10-31T05:26:09.971Z,6.43
2017-10-31T05:28:37.396Z,6.50
2017-10-31T05:31:04.901Z,6.57
2017-10-31T05:33:32.377Z,7.30
2017-10-31T05:35:59.851Z,6.93
2017-10-31T05:38:28.052Z,6.30
2017-10-31T05:40:55.496Z,7.07
2017-10-31T05:43:23.717Z,6.03
2017-10-31T05:45:51.146Z,5.87
2017-10-31T05:48:18.607Z,6.60
2017-10-31T05:50:46.061Z,5.50
2017-10-31T05:53:13.513Z,6.00
2017-10-31T05:55:40.998Z,4.70
2017-10-31T05:58:08.579Z,5.23
2017-10-31T06:00:36.014Z,6.13
2017-10-31T06:03:03.865Z,5.03
2017-10-31T06:05:31.325Z,6.33
2017-10-31T06:07:58.773Z,6.10
2017-10-31T06:10:26.214Z,5.83
2017-10-31T06:12:53.729Z,5.93
2017-10-31T06:15:21.945Z,6.13
2017-10-31T06:17:49.403Z,5.23
2017-10-31T06:20:16.877Z,5.50
2017-10-31T06:22:50.022Z,5.30
2017-10-31T06:25:23.950Z,5.60
2017-10-31T06:27:57.124Z,6.03
2017-10-31T06:30:30.352Z,5.50
2017-10-31T06:32:57.801Z,6.27
2017-10-31T06:35:25.389Z,5.60
2017-10-31T06:37:52.905Z,5.10
2017-10-31T06:40:20.426Z,5.47
2017-10-31T06:42:48.649Z,5.57
2017-10-31T06:45:16.181Z,5.27
2017-10-31T06:47:43.747Z,5.60
2017-10-31T06:50:12.158Z,5.60
2017-10-31T06:52:39.619Z,4.77
2017-10-31T06:55:07.083Z,6.20
2017-10-31T06:57:34.517Z,5.17
2017-10-31T07:00:02.025Z,5.23
2017-10-31T07:02:30.254Z,5.87
2017-10-31T07:04:57.746Z,5.60
2017-10-31T07:07:25.946Z,5.00
2017-10-31T07:09:53.393Z,5.07
2017-10-31T07:12:20.885Z,5.40
2017-10-31T07:14:48.953Z,5.13
2017-10-31T07:17:16.401Z,5.70
2017-10-31T07:19:43.844Z,5.20
2017-10-31T07:22:11.279Z,5.10
2017-10-31T07:24:38.721Z,5.33
2017-10-31T07:27:06.937Z,4.80
2017-10-31T07:29:34.383Z,5.00
2017-10-31T07:32:01.849Z,5.23
2017-10-31T07:34:29.324Z,6.77
2017-10-31T07:36:56.781Z,4.70
2017-10-31T07:39:24.229Z,4.70
2017-10-31T07:41:51.684Z,4.70
2017-10-31T07:44:19.453Z,4.63
2017-10-31T07:46:47.004Z,4.13
2017-10-31T07:49:14.446Z,4.97
2017-10-31T07:51:41.921Z,4.13
2017-10-31T07:54:10.103Z,4.37
2017-10-31T07:56:37.604Z,4.33
2017-10-31T07:59:05.036Z,4.40
2017-10-31T08:01:33.272Z,4.77
2017-10-31T08:04:00.733Z,4.50
2017-10-31T08:06:28.289Z,4.30
2017-10-31T08:08:55.904Z,4.47
2017-10-31T08:11:23.350Z,4.07
2017-10-31T08:13:51.556Z,3.90
2017-10-31T08:16:19.033Z,4.50
2017-10-31T08:18:46.485Z,4.30
2017-10-31T08:21:14.045Z,4.60
2017-10-31T08:23:41.496Z,4.93
2017-10-31T08:26:08.958Z,4.60
2017-10-31T08:28:36.412Z,4.73
2017-10-31T08:31:03.865Z,5.07
2017-10-31T08:33:31.324Z,5.00
2017-10-31T08:35:58.885Z,5.70
2017-10-31T08:38:26.329Z,6.60
2017-10-31T08:40:53.802Z,5.13
2017-10-31T08:43:21.274Z,5.50
2017-10-31T08:45:48.746Z,7.40
2017-10-31T08:48:17.617Z,7.47
2017-10-31T08:50:45.056Z,7.43
2017-10-31T08:53:12.521Z,7.40
2017-10-31T08:55:40.146Z,7.90
2017-10-31T08:58:07.597Z,7.40
2017-10-31T09:00:35.047Z,6.57
2017-10-31T09:03:02.530Z,8.07
2017-10-31T09:05:30.020Z,6.37
2017-10-31T09:07:58.258Z,6.90
2017-10-31T09:10:25.811Z,7.10
2017-10-31T09:12:53.448Z,7.87
2017-10-31T09:15:20.893Z,7.17
2017-10-31T09:17:48.390Z,7.10
2017-10-31T09:20:15.841Z,7.53
2017-10-31T09:22:43.397Z,7.37
2017-10-31T09:25:10.841Z,6.63
2017-10-31T09:27:38.285Z,5.93
2017-10-31T09:30:05.725Z,6.00
2017-10-31T09:32:33.201Z,5.93
2017-10-31T09:35:00.637Z,7.00
2017-10-31T09:37:28.081Z,6.80
2017-10-31T09:39:55.516Z,6.03
2017-10-31T09:42:23.762Z,6.17
2017-10-31T09:44:51.824Z,7.10
2017-10-31T09:47:20.104Z,7.30
2017-10-31T09:49:47.656Z,8.10
2017-10-31T09:52:15.117Z,7.40
2017-10-31T09:54:42.668Z,7.50
2017-10-31T09:57:10.644Z,8.10
2017-10-31T09:59:38.106Z,5.07
2017-10-31T10:02:05.652Z,6.67
2017-10-31T10:04:33.097Z,5.60
2017-10-31T10:07:00.565Z,6.20
2017-10-31T10:09:28.012Z,7.80
2017-10-31T10:11:55.456Z,6.80
2017-10-31T10:14:22.929Z,6.20
2017-10-31T10:16:50.444Z,4.70
2017-10-31T10:19:17.941Z,5.50
2017-10-31T10:21:45.409Z,6.00
2017-10-31T10:24:12.961Z,6.03
2017-10-31T10:26:40.506Z,5.80
2017-10-31T10:29:07.964Z,5.20
2017-10-31T10:31:35.417Z,6.30
2017-10-31T10:34:02.879Z,5.90
2017-10-31T10:36:30.330Z,7.17
2017-10-31T10:38:57.802Z,6.73
2017-10-31T10:41:25.349Z,6.63
2017-10-31T10:43:52.800Z,6.70
2017-10-31T10:46:21.076Z,6.90
2017-10-31T10:48:48.525Z,6.00
2017-10-31T10:51:15.997Z,7.10
2017-10-31T10:53:43.548Z,5.90
2017-10-31T10:56:11.109Z,5.00
2017-10-31T10:58:38.565Z,5.37
2017-10-31T11:01:06.120Z,5.80
2017-10-31T11:03:33.657Z,4.60
2017-10-31T11:06:01.153Z,5.07
2017-10-31T11:08:28.700Z,5.20
2017-10-31T11:10:56.251Z,4.80
2017-10-31T11:13:23.710Z,4.43
2017-10-31T11:15:51.266Z,5.10
2017-10-31T11:18:18.704Z,4.90
2017-10-31T11:20:46.169Z,5.40
2017-10-31T11:23:13.602Z,4.83
2017-10-31T11:25:41.073Z,4.70
2017-10-31T11:28:08.541Z,5.70
2017-10-31T11:30:36.100Z,5.60
2017-10-31T11:33:03.556Z,5.97
2017-10-31T11:35:30.996Z,5.97
2017-10-31T11:37:58.540Z,5.50
2017-10-31T11:40:26.035Z,5.20
2017-10-31T11:42:55.027Z,4.37
2017-10-31T11:45:22.582Z,4.87
2017-10-31T11:47:50.136Z,4.13
2017-10-31T11:50:17.570Z,3.80
2017-10-31T11:52:45.055Z,5.13
2017-10-31T11:55:12.489Z,4.57
2017-10-31T11:57:40.028Z,4.10
2017-10-31T12:00:07.470Z,3.87
2017-10-31T12:02:34.990Z,4.10
2017-10-31T12:05:02.531Z,4.27
2017-10-31T12:07:30.082Z,3.97
2017-10-31T12:09:57.521Z,4.17
2017-10-31T12:12:24.976Z,4.70
2017-10-31T12:14:52.418Z,4.30
2017-10-31T12:17:19.874Z,3.87
2017-10-31T12:19:47.362Z,4.00
2017-10-31T12:22:14.913Z,4.53
2017-10-31T12:24:42.366Z,5.73
2017-10-31T12:27:09.805Z,5.13
2017-10-31T12:29:37.237Z,4.33
2017-10-31T12:32:04.689Z,4.80
2017-10-31T12:34:32.189Z,5.17
2017-10-31T12:36:59.764Z,4.40
2017-10-31T12:39:27.206Z,4.83
2017-10-31T12:41:54.659Z,4.63
2017-10-31T12:44:22.102Z,5.20
2017-10-31T12:46:49.572Z,5.70
2017-10-31T12:49:17.018Z,5.00
2017-10-31T12:51:44.475Z,4.30
2017-10-31T12:54:12.116Z,5.30
2017-10-31T12:56:39.571Z,4.77
2017-10-31T12:59:07.066Z,4.97
2017-10-31T13:01:34.510Z,5.03
2017-10-31T13:04:02.074Z,5.10
2017-10-31T13:06:29.523Z,5.17
2017-10-31T13:08:57.054Z,5.47
2017-10-31T13:11:24.476Z,5.20
2017-10-31T13:13:52.700Z,5.17
2017-10-31T13:16:20.218Z,4.80
2017-10-31T13:18:47.746Z,4.70
2017-10-31T13:21:15.173Z,5.40
2017-10-31T13:23:43.336Z,5.33
2017-10-31T13:26:11.494Z,4.63
2017-10-31T13:28:39.846Z,5.37
2017-10-31T13:31:08.954Z,4.30
2017-10-31T13:33:37.310Z,5.40
2017-10-31T13:36:06.525Z,4.43
2017-10-31T13:38:34.771Z,4.67
2017-10-31T13:41:02.943Z,4.67
2017-10-31T13:43:33.056Z,5.00
2017-10-31T13:46:00.580Z,4.10
2017-10-31T13:48:29.505Z,5.10
2017-10-31T13:50:57.165Z,4.63
2017-10-31T13:53:25.077Z,4.73
2017-10-31T13:55:52.522Z,5.07
2017-10-31T13:58:19.988Z,6.67
2017-10-31T14:00:47.927Z,5.60
2017-10-31T14:03:17.008Z,4.80
2017-10-31T14:05:44.530Z,4.60
2017-10-31T14:08:12.250Z,5.60
2017-10-31T14:10:39.693Z,5.97
2017-10-31T14:13:07.933Z,4.83
2017-10-31T14:15:35.501Z,5.53
2017-10-31T14:18:03.567Z,5.93
2017-10-31T14:20:31.376Z,4.80
2017-10-31T14:22:58.932Z,4.80
2017-10-31T14:25:26.381Z,5.70
2017-10-31T14:27:53.816Z,5.23
2017-10-31T14:30:22.053Z,5.33
2017-10-31T14:32:49.504Z,5.30
2017-10-31T14:35:16.947Z,4.97
2017-10-31T14:37:44.408Z,5.37
2017-10-31T14:40:11.885Z,4.93
2017-10-31T14:42:39.357Z,4.50
2017-10-31T14:45:06.889Z,4.83
2017-10-31T14:47:34.342Z,5.60
2017-10-31T14:50:01.824Z,5.63
2017-10-31T14:52:29.281Z,5.60
2017-10-31T14:54:56.815Z,4.73
2017-10-31T14:57:24.344Z,5.03
2017-10-31T14:59:51.829Z,4.70
2017-10-31T15:02:19.268Z,5.13
2017-10-31T15:04:46.710Z,5.00
2017-10-31T15:07:14.159Z,4.87
2017-10-31T15:09:41.727Z,4.60
2017-10-31T15:12:09.209Z,4.50
2017-10-31T15:14:36.741Z,4.30
2017-10-31T15:17:04.929Z,4.40
2017-10-31T15:19:32.401Z,4.40
2017-10-31T15:21:59.940Z,4.63
2017-10-31T15:24:27.368Z,4.10
2017-10-31T15:26:54.827Z,5.40
2017-10-31T15:29:22.326Z,5.37
2017-10-31T15:31:49.771Z,5.93
2017-10-31T15:34:17.223Z,5.27
2017-10-31T15:36:44.656Z,4.27
2017-10-31T15:39:12.137Z,4.07
2017-10-31T15:41:39.607Z,3.13
2017-10-31T15:44:07.107Z,4.30
2017-10-31T15:46:34.610Z,4.20
2017-10-31T15:49:02.757Z,3.80
2017-10-31T15:51:30.205Z,4.60
2017-10-31T15:53:57.766Z,4.80
2017-10-31T15:56:25.229Z,4.03
2017-10-31T15:58:52.698Z,5.27
2017-10-31T16:01:20.152Z,4.93
2017-10-31T16:03:47.723Z,3.87
2017-10-31T16:06:15.165Z,4.87
2017-10-31T16:08:42.604Z,4.40
2017-10-31T16:11:10.054Z,3.90
2017-10-31T16:13:37.538Z,4.20
2017-10-31T16:16:04.965Z,3.57
2017-10-31T16:18:32.480Z,4.50
2017-10-31T16:21:00.696Z,3.83
2017-10-31T16:23:28.143Z,4.20
2017-10-31T16:25:55.580Z,3.80
2017-10-31T16:28:23.024Z,3.70
2017-10-31T16:30:51.265Z,4.60
2017-10-31T16:33:18.808Z,4.87
2017-10-31T16:35:46.278Z,4.70
2017-10-31T16:38:13.734Z,4.50
2017-10-31T16:40:41.180Z,4.40
2017-10-31T16:43:08.642Z,5.47
2017-10-31T16:45:36.090Z,5.13
2017-10-31T16:48:03.578Z,4.90
2017-10-31T16:50:31.794Z,5.10
2017-10-31T16:53:00.010Z,6.27
2017-10-31T16:55:27.559Z,5.73
2017-10-31T16:57:55.046Z,4.53
2017-10-31T17:00:23.270Z,5.10
2017-10-31T17:02:50.733Z,5.63
2017-10-31T17:05:18.281Z,5.03
2017-10-31T17:07:45.750Z,6.27
2017-10-31T17:10:13.205Z,6.47
2017-10-31T17:12:40.662Z,6.10
2017-10-31T17:15:08.126Z,7.67
2017-10-31T17:17:35.565Z,7.90
2017-10-31T17:20:03.022Z,7.97
2017-10-31T17:22:30.456Z,8.30
2017-10-31T17:24:57.911Z,9.47
2017-10-31T17:27:25.463Z,10.67
2017-10-31T17:29:52.925Z,11.30
2017-10-31T17:32:20.345Z,12.37
2017-10-31T17:34:48.566Z,13.90
2017-10-31T17:37:16.035Z,11.97
2017-10-31T17:39:43.611Z,12.43
2017-10-31T17:42:11.153Z,13.60
2017-10-31T17:44:38.805Z,13.33
2017-10-31T17:47:06.245Z,14.03
2017-10-31T17:49:33.722Z,14.80
2017-10-31T17:52:01.265Z,13.50
2017-10-31T17:54:28.825Z,13.50
2017-10-31T17:56:56.279Z,15.40
2017-10-31T17:59:23.794Z,15.10
2017-10-31T18:01:51.354Z,14.20
2017-10-31T18:04:18.806Z,13.53
2017-10-31T18:06:47.021Z,13.20
2017-10-31T18:09:14.520Z,13.80
2017-10-31T18:11:42.065Z,13.90
2017-10-31T18:14:10.325Z,12.13
2017-10-31T18:16:37.907Z,12.53
2017-10-31T18:19:05.449Z,11.83
2017-10-31T18:21:33.002Z,10.87
2017-10-31T18:24:00.442Z,11.13
2017-10-31T18:26:27.975Z,10.30
2017-10-31T18:28:55.416Z,11.63
2017-10-31T18:31:22.908Z,11.87
2017-10-31T18:33:50.359Z,11.33
2017-10-31T18:36:17.843Z,10.73
2017-10-31T18:38:45.271Z,10.97
2017-10-31T18:41:13.771Z,10.97
2017-10-31T18:43:41.317Z,11.20
2017-10-31T18:46:09.294Z,10.23
2017-10-31T18:48:36.732Z,10.90
2017-10-31T18:51:04.192Z,10.83
2017-10-31T18:53:31.682Z,11.93
2017-10-31T18:55:59.209Z,12.03
2017-10-31T18:58:26.663Z,11.17
2017-10-31T19:00:54.245Z,19.47
2017-10-31T19:03:21.677Z,18.33
2017-10-31T19:05:49.117Z,13.20
2017-10-31T19:08:16.588Z,12.40
2017-10-31T19:10:44.049Z,14.30
2017-10-31T19:13:11.597Z,13.80
2017-10-31T19:15:39.074Z,16.47
2017-10-31T19:18:06.635Z,17.63
2017-10-31T19:20:34.192Z,16.70
2017-10-31T19:23:01.762Z,16.90
2017-10-31T19:25:30.134Z,15.20
2017-10-31T19:27:57.748Z,17.67
2017-10-31T19:30:26.333Z,18.47
2017-10-31T19:32:54.065Z,21.27
2017-10-31T19:35:21.865Z,21.27
2017-10-31T19:37:49.421Z,21.20
2017-10-31T19:40:17.024Z,21.50
2017-10-31T19:42:55.278Z,18.20
2017-10-31T19:45:23.613Z,17.50
2017-10-31T19:47:51.990Z,16.67
2017-10-31T19:50:19.483Z,16.20
2017-10-31T19:52:46.944Z,15.93
2017-10-31T19:55:14.418Z,15.10
2017-10-31T19:57:41.966Z,15.83
2017-10-31T20:00:10.361Z,15.67
2017-10-31T20:02:37.846Z,13.20
2017-10-31T20:05:05.396Z,14.13
2017-10-31T20:07:33.609Z,13.23
2017-10-31T20:10:01.054Z,12.80
2017-10-31T20:12:28.512Z,13.90
2017-10-31T20:14:55.988Z,12.80
2017-10-31T20:17:23.441Z,13.27
2017-10-31T20:19:50.889Z,13.20
2017-10-31T20:22:18.333Z,12.93
2017-10-31T20:24:45.810Z,12.87
2017-10-31T20:27:13.362Z,13.17
2017-10-31T20:29:40.825Z,13.37
2017-10-31T20:32:08.270Z,13.60
2017-10-31T20:34:35.721Z,14.50
2017-10-31T20:37:03.197Z,14.57
2017-10-31T20:39:30.665Z,14.53
2017-10-31T20:41:58.128Z,15.87
2017-10-31T20:44:25.585Z,14.90
2017-10-31T20:46:53.022Z,14.50
2017-10-31T20:49:20.480Z,14.20
2017-10-31T20:51:47.997Z,16.00
2017-10-31T20:54:15.568Z,15.87
2017-10-31T20:56:43.070Z,15.77
2017-10-31T20:59:10.600Z,16.80
2017-10-31T21:01:39.608Z,15.50
2017-10-31T21:04:07.902Z,13.60
2017-10-31T21:06:36.295Z,14.60
2017-10-31T21:09:03.905Z,13.80
2017-10-31T21:11:31.645Z,14.53
2017-10-31T21:13:59.496Z,15.30
2017-10-31T21:16:27.203Z,13.67
2017-10-31T21:18:54.652Z,12.57
2017-10-31T21:21:22.313Z,13.50
2017-10-31T21:23:50.072Z,11.40
2017-10-31T21:26:18.366Z,11.50
2017-10-31T21:28:45.933Z,11.30
2017-10-31T21:31:14.261Z,11.07
2017-10-31T21:33:41.780Z,10.50
2017-10-31T21:36:09.297Z,10.83
2017-10-31T21:38:37.126Z,10.43
2017-10-31T21:41:04.870Z,12.13
2017-10-31T21:43:34.297Z,10.43
2017-10-31T21:46:01.855Z,10.70
2017-10-31T21:48:30.214Z,10.40
2017-10-31T21:50:58.645Z,12.10
2017-10-31T21:53:27.194Z,12.80
2017-10-31T21:55:55.555Z,11.37
2017-10-31T21:58:23.200Z,11.73
2017-10-31T22:00:50.790Z,10.73
2017-10-31T22:03:18.422Z,10.50
2017-10-31T22:05:45.945Z,9.60
2017-10-31T22:08:14.271Z,11.40
2017-10-31T22:10:42.622Z,8.90
2017-10-31T22:13:10.637Z,10.00
2017-10-31T22:15:39.001Z,10.70
2017-10-31T22:18:06.449Z,10.97
2017-10-31T22:20:33.913Z,11.40
2017-10-31T22:23:01.352Z,9.87
2017-10-31T22:25:28.807Z,8.90
2017-10-31T22:27:56.250Z,9.50
2017-10-31T22:30:23.713Z,9.97
2017-10-31T22:32:51.242Z,9.27
2017-10-31T22:35:18.700Z,8.93
2017-10-31T22:37:46.180Z,9.90
2017-10-31T22:40:13.629Z,8.97
2017-10-31T22:42:41.091Z,10.27
2017-10-31T22:45:08.534Z,10.07
2017-10-31T22:47:35.982Z,10.27
2017-10-31T22:50:03.486Z,9.17
2017-10-31T22:52:31.009Z,10.00
2017-10-31T22:54:58.813Z,10.83
2017-10-31T22:57:27.230Z,10.03
2017-10-31T22:59:54.666Z,10.63
2017-10-31T23:02:22.990Z,10.73
2017-10-31T23:04:50.452Z,9.50
2017-10-31T23:07:27.816Z,11.03
2017-10-31T23:09:55.297Z,9.67
2017-10-31T23:12:22.797Z,10.50
2017-10-31T23:14:51.018Z,9.53
2017-10-31T23:17:18.580Z,10.80
2017-10-31T23:19:46.072Z,10.50
2017-10-31T23:22:13.851Z,9.70
2017-10-31T23:24:41.300Z,11.40
2017-10-31T23:27:08.878Z,9.50
2017-10-31T23:29:37.267Z,10.37
2017-10-31T23:32:04.739Z,10.37
2017-10-31T23:34:32.256Z,11.53
2017-10-31T23:36:59.692Z,10.60
2017-10-31T23:39:27.926Z,10.83
2017-10-31T23:41:55.364Z,10.63
2017-10-31T23:44:22.836Z,9.97
2017-10-31T23:46:50.292Z,10.47
2017-10-31T23:49:17.747Z,10.10
2017-10-31T23:51:45.309Z,10.80
2017-10-31T23:54:12.754Z,9.77
2017-10-31T23:56:40.219Z,10.60
2017-10-31T23:59:07.674Z,9.47
